createdAt,value
2018-05-31T00:00:35.203Z,991.91
2018-05-31T00:01:45.272Z,991.88
2018-05-31T00:02:55.072Z,991.86
2018-05-31T00:04:04.881Z,991.88
2018-05-31T00:05:14.673Z,991.87
2018-05-31T00:06:24.751Z,991.87
2018-05-31T00:07:34.812Z,991.87
2018-05-31T00:08:45.058Z,991.85
2018-05-31T00:09:55.470Z,991.82
2018-05-31T00:11:06.245Z,991.83
2018-05-31T00:12:16.733Z,991.84
2018-05-31T00:13:27.318Z,991.86
2018-05-31T00:14:37.106Z,991.86
2018-05-31T00:15:47.170Z,991.83
2018-05-31T00:16:56.964Z,991.86
2018-05-31T00:18:06.755Z,991.87
2018-05-31T00:19:16.812Z,991.87
2018-05-31T00:20:26.889Z,991.88
2018-05-31T00:21:36.970Z,991.87
2018-05-31T00:22:47.043Z,991.89
2018-05-31T00:23:56.829Z,991.92
2018-05-31T00:25:06.639Z,991.9
2018-05-31T00:26:17.112Z,991.93
2018-05-31T00:27:26.651Z,991.94
2018-05-31T00:28:36.445Z,991.9
2018-05-31T00:29:46.245Z,991.93
2018-05-31T00:30:56.053Z,991.9
2018-05-31T00:32:05.841Z,991.98
2018-05-31T00:33:15.907Z,991.93
2018-05-31T00:34:25.995Z,991.96
2018-05-31T00:35:36.062Z,992
2018-05-31T00:36:45.949Z,992.01
2018-05-31T00:37:56.311Z,992.04
2018-05-31T00:39:07.469Z,992.03
2018-05-31T00:40:18.331Z,992.02
2018-05-31T00:41:28.725Z,992.08
2018-05-31T00:42:38.236Z,992.08
2018-05-31T00:43:48.039Z,992.1
2018-05-31T00:44:57.562Z,992.14
2018-05-31T00:46:07.636Z,992.09
2018-05-31T00:47:17.717Z,992.11
2018-05-31T00:48:27.499Z,992.13
2018-05-31T00:49:37.580Z,992.12
2018-05-31T00:50:47.684Z,992.18
2018-05-31T00:51:57.763Z,992.14
2018-05-31T00:53:07.831Z,992.14
2018-05-31T00:54:17.920Z,992.11
2018-05-31T00:55:27.422Z,992.12
2018-05-31T00:56:37.482Z,992.17
2018-05-31T00:57:47.304Z,992.13
2018-05-31T00:58:57.085Z,992.16
2018-05-31T01:00:06.598Z,992.17
2018-05-31T01:01:16.658Z,992.14
2018-05-31T01:02:26.726Z,992.17
2018-05-31T01:03:36.819Z,992.16
2018-05-31T01:04:46.882Z,992.2
2018-05-31T01:05:56.951Z,992.21
2018-05-31T01:07:07.549Z,992.21
2018-05-31T01:08:18.429Z,992.22
2018-05-31T01:09:29.397Z,992.26
2018-05-31T01:10:39.612Z,992.25
2018-05-31T01:11:50.115Z,992.24
2018-05-31T01:13:00.530Z,992.27
2018-05-31T01:14:10.307Z,992.27
2018-05-31T01:15:20.143Z,992.29
2018-05-31T01:16:29.931Z,992.31
2018-05-31T01:17:39.183Z,992.28
2018-05-31T01:18:49.248Z,992.29
2018-05-31T01:19:59.323Z,992.31
2018-05-31T01:21:09.381Z,992.31
2018-05-31T01:22:19.514Z,992.31
2018-05-31T01:23:29.035Z,992.32
2018-05-31T01:24:39.102Z,992.31
2018-05-31T01:25:48.333Z,992.32
2018-05-31T01:26:58.118Z,992.36
2018-05-31T01:28:08.203Z,992.33
2018-05-31T01:29:18.264Z,992.32
2018-05-31T01:30:28.059Z,992.33
2018-05-31T01:31:38.138Z,992.3
2018-05-31T01:32:48.207Z,992.31
2018-05-31T01:33:58.286Z,992.33
2018-05-31T01:35:08.354Z,992.34
2018-05-31T01:36:17.851Z,992.35
2018-05-31T01:37:28.727Z,992.31
2018-05-31T01:38:39.560Z,992.29
2018-05-31T01:39:50.634Z,992.29
2018-05-31T01:41:00.946Z,992.34
2018-05-31T01:42:11.024Z,992.35
2018-05-31T01:43:20.787Z,992.34
2018-05-31T01:44:30.291Z,992.34
2018-05-31T01:45:40.371Z,992.35
2018-05-31T01:46:50.502Z,992.35
2018-05-31T01:48:00.274Z,992.34
2018-05-31T01:49:10.350Z,992.33
2018-05-31T01:50:20.146Z,992.38
2018-05-31T01:51:30.216Z,992.36
2018-05-31T01:52:40.011Z,992.32
2018-05-31T01:53:49.794Z,992.39
2018-05-31T01:54:59.860Z,992.34
2018-05-31T01:56:09.378Z,992.34
2018-05-31T01:57:18.894Z,992.31
2018-05-31T01:58:28.894Z,992.35
2018-05-31T01:59:38.978Z,992.37
2018-05-31T02:00:49.032Z,992.39
2018-05-31T02:01:59.112Z,992.41
2018-05-31T02:03:08.635Z,992.4
2018-05-31T02:04:18.706Z,992.41
2018-05-31T02:05:29.033Z,992.45
2018-05-31T02:06:39.894Z,992.48
2018-05-31T02:07:50.963Z,992.47
2018-05-31T02:09:02.094Z,992.48
2018-05-31T02:10:12.283Z,992.49
2018-05-31T02:11:22.097Z,992.48
2018-05-31T02:12:31.893Z,992.51
2018-05-31T02:13:41.692Z,992.51
2018-05-31T02:14:51.487Z,992.5
2018-05-31T02:16:00.738Z,992.53
2018-05-31T02:17:09.963Z,992.57
2018-05-31T02:18:20.014Z,992.55
2018-05-31T02:19:30.096Z,992.52
2018-05-31T02:20:40.168Z,992.52
2018-05-31T02:21:49.681Z,992.53
2018-05-31T02:22:59.753Z,992.54
2018-05-31T02:24:09.544Z,992.53
2018-05-31T02:25:19.327Z,992.52
2018-05-31T02:26:29.146Z,992.55
2018-05-31T02:27:38.938Z,992.55
2018-05-31T02:28:49.018Z,992.54
2018-05-31T02:29:58.527Z,992.53
2018-05-31T02:31:08.650Z,992.58
2018-05-31T02:32:18.769Z,992.58
2018-05-31T02:33:28.563Z,992.57
2018-05-31T02:34:38.351Z,992.62
2018-05-31T02:35:48.457Z,992.61
2018-05-31T02:36:59.085Z,992.63
2018-05-31T02:38:10.703Z,992.61
2018-05-31T02:39:21.660Z,992.67
2018-05-31T02:40:32.002Z,992.68
2018-05-31T02:41:41.793Z,992.68
2018-05-31T02:42:51.303Z,992.67
2018-05-31T02:44:01.400Z,992.65
2018-05-31T02:45:10.626Z,992.63
2018-05-31T02:46:20.688Z,992.65
2018-05-31T02:47:30.791Z,992.66
2018-05-31T02:48:40.580Z,992.68
2018-05-31T02:49:50.650Z,992.66
2018-05-31T02:51:00.705Z,992.64
2018-05-31T02:52:10.490Z,992.69
2018-05-31T02:53:20.555Z,992.7
2018-05-31T02:54:30.635Z,992.73
2018-05-31T02:55:40.148Z,992.75
2018-05-31T02:56:49.936Z,992.72
2018-05-31T02:58:00.013Z,992.76
2018-05-31T02:59:09.798Z,992.77
2018-05-31T03:04:28.066Z,992.78
2018-05-31T03:05:37.931Z,992.8
2018-05-31T03:06:47.999Z,992.78
2018-05-31T03:07:57.806Z,992.78
2018-05-31T03:09:08.285Z,992.78
2018-05-31T03:10:18.086Z,992.8
2018-05-31T03:11:27.867Z,992.77
2018-05-31T03:12:37.925Z,992.71
2018-05-31T03:13:47.713Z,992.75
2018-05-31T03:14:57.517Z,992.77
2018-05-31T03:16:07.042Z,992.76
2018-05-31T03:17:17.107Z,992.76
2018-05-31T03:18:26.918Z,992.76
2018-05-31T03:19:36.709Z,992.79
2018-05-31T03:20:46.311Z,992.8
2018-05-31T03:21:56.290Z,992.83
2018-05-31T03:23:07.745Z,992.81
2018-05-31T03:24:17.928Z,992.83
2018-05-31T03:25:28.798Z,992.86
2018-05-31T03:26:38.800Z,992.83
2018-05-31T03:27:48.350Z,992.85
2018-05-31T03:28:58.452Z,992.88
2018-05-31T03:30:08.229Z,992.9
2018-05-31T03:31:18.042Z,992.91
2018-05-31T03:32:28.167Z,992.9
2018-05-31T03:33:38.248Z,992.91
2018-05-31T03:34:48.068Z,992.91
2018-05-31T03:35:57.879Z,992.89
2018-05-31T03:37:07.949Z,992.92
2018-05-31T03:38:17.884Z,992.94
2018-05-31T03:39:27.955Z,992.95
2018-05-31T03:40:37.736Z,992.95
2018-05-31T03:41:47.847Z,992.91
2018-05-31T03:42:57.074Z,992.9
2018-05-31T03:44:06.599Z,992.93
2018-05-31T03:45:16.682Z,992.9
2018-05-31T03:46:26.466Z,992.83
2018-05-31T03:47:36.550Z,992.85
2018-05-31T03:48:46.339Z,992.88
2018-05-31T03:49:56.126Z,992.94
2018-05-31T03:51:06.212Z,992.91
2018-05-31T03:52:15.727Z,992.95
2018-05-31T03:53:25.835Z,992.99
2018-05-31T03:54:36.891Z,992.98
2018-05-31T03:55:48.236Z,992.96
2018-05-31T03:56:58.200Z,992.98
2018-05-31T03:58:08.395Z,993
2018-05-31T03:59:17.919Z,993
2018-05-31T04:00:28.023Z,993.02
2018-05-31T04:01:37.812Z,993.03
2018-05-31T04:02:47.904Z,993.07
2018-05-31T04:03:57.709Z,993.1
2018-05-31T04:05:07.496Z,993.08
2018-05-31T04:06:17.293Z,993.13
2018-05-31T04:07:26.805Z,993.11
2018-05-31T04:08:36.044Z,993.1
2018-05-31T04:09:46.122Z,993.14
2018-05-31T04:10:55.929Z,993.1
2018-05-31T04:12:05.988Z,993.1
2018-05-31T04:13:16.055Z,993.14
2018-05-31T04:14:26.115Z,993.12
2018-05-31T04:15:35.920Z,993.08
2018-05-31T04:16:45.989Z,993.08
2018-05-31T04:17:56.056Z,993.08
2018-05-31T04:19:05.869Z,993.13
2018-05-31T04:20:15.946Z,993.13
2018-05-31T04:21:26.016Z,993.14
2018-05-31T04:22:36.081Z,993.17
2018-05-31T04:23:46.158Z,993.16
2018-05-31T04:24:56.806Z,993.16
2018-05-31T04:26:07.679Z,993.22
2018-05-31T04:27:18.368Z,993.26
2018-05-31T04:28:28.793Z,993.28
2018-05-31T04:29:39.040Z,993.3
2018-05-31T04:30:49.136Z,993.29
2018-05-31T04:31:59.212Z,993.28
2018-05-31T04:33:09.316Z,993.3
2018-05-31T04:34:19.097Z,993.25
2018-05-31T04:35:28.890Z,993.26
2018-05-31T04:36:38.444Z,993.29
2018-05-31T04:37:48.386Z,993.28
2018-05-31T04:38:57.617Z,993.29
2018-05-31T04:40:07.752Z,993.3
2018-05-31T04:41:17.818Z,993.28
2018-05-31T04:42:27.899Z,993.3
2018-05-31T04:43:37.868Z,993.3
2018-05-31T04:44:47.939Z,993.31
2018-05-31T04:45:58.002Z,993.28
2018-05-31T04:47:07.520Z,993.27
2018-05-31T04:48:17.594Z,993.29
2018-05-31T04:49:27.380Z,993.26
2018-05-31T04:50:37.163Z,993.24
2018-05-31T04:51:47.009Z,993.24
2018-05-31T04:52:57.082Z,993.28
2018-05-31T04:54:06.885Z,993.3
2018-05-31T04:55:16.942Z,993.31
2018-05-31T04:56:27.706Z,993.29
2018-05-31T04:57:38.886Z,993.3
2018-05-31T04:58:50.014Z,993.28
2018-05-31T05:00:00.366Z,993.31
2018-05-31T05:01:09.613Z,993.31
2018-05-31T05:02:19.671Z,993.31
2018-05-31T05:03:29.742Z,993.29
2018-05-31T05:04:39.532Z,993.3
2018-05-31T05:05:49.332Z,993.3
2018-05-31T05:06:59.136Z,993.26
2018-05-31T05:08:08.638Z,993.23
2018-05-31T05:09:18.140Z,993.29
2018-05-31T05:10:27.951Z,993.26
2018-05-31T05:11:37.468Z,993.26
2018-05-31T05:12:47.660Z,993.27
2018-05-31T05:13:57.436Z,993.24
2018-05-31T05:15:06.952Z,993.23
2018-05-31T05:16:17.020Z,993.24
2018-05-31T05:17:26.252Z,993.27
2018-05-31T05:18:36.079Z,993.25
2018-05-31T05:19:46.139Z,993.24
2018-05-31T05:20:55.955Z,993.28
2018-05-31T05:22:06.025Z,993.29
2018-05-31T05:23:15.618Z,993.27
2018-05-31T05:24:25.430Z,993.34
2018-05-31T05:25:35.595Z,993.32
2018-05-31T05:26:45.505Z,993.34
2018-05-31T05:27:55.566Z,993.37
2018-05-31T05:29:06.112Z,993.37
2018-05-31T05:30:16.067Z,993.37
2018-05-31T05:31:26.779Z,993.38
2018-05-31T05:32:36.836Z,993.36
2018-05-31T05:33:47.609Z,993.41
2018-05-31T05:34:57.513Z,993.44
2018-05-31T05:36:07.306Z,993.44
2018-05-31T05:37:17.078Z,993.39
2018-05-31T05:38:27.159Z,993.41
2018-05-31T05:39:36.943Z,993.47
2018-05-31T05:40:47.005Z,993.43
2018-05-31T05:41:57.077Z,993.44
2018-05-31T05:43:06.880Z,993.46
2018-05-31T05:44:16.955Z,993.48
2018-05-31T05:45:26.504Z,993.47
2018-05-31T05:46:35.755Z,993.49
2018-05-31T05:47:45.865Z,993.48
2018-05-31T05:48:55.917Z,993.47
2018-05-31T05:50:05.574Z,993.52
2018-05-31T05:51:15.950Z,993.48
2018-05-31T05:52:26.036Z,993.5
2018-05-31T05:53:36.158Z,993.51
2018-05-31T05:54:46.214Z,993.5
2018-05-31T05:55:56.027Z,993.48
2018-05-31T05:57:05.542Z,993.49
2018-05-31T05:58:15.344Z,993.5
2018-05-31T05:59:25.421Z,993.48
2018-05-31T06:00:34.962Z,993.52
2018-05-31T06:01:45.410Z,993.5
2018-05-31T06:02:55.943Z,993.52
2018-05-31T06:04:06.675Z,993.5
2018-05-31T06:05:17.749Z,993.53
2018-05-31T06:06:28.656Z,993.51
2018-05-31T06:07:39.005Z,993.56
2018-05-31T06:08:49.090Z,993.55
2018-05-31T06:09:59.210Z,993.58
2018-05-31T06:11:09.680Z,993.6
2018-05-31T06:12:19.471Z,993.6
2018-05-31T06:13:29.530Z,993.58
2018-05-31T06:14:39.614Z,993.58
2018-05-31T06:15:49.700Z,993.6
2018-05-31T06:16:59.479Z,993.56
2018-05-31T06:18:09.578Z,993.62
2018-05-31T06:19:19.372Z,993.58
2018-05-31T06:20:28.881Z,993.61
2018-05-31T06:21:38.982Z,993.58
2018-05-31T06:22:48.483Z,993.62
2018-05-31T06:23:58.538Z,993.59
2018-05-31T06:25:08.643Z,993.6
2018-05-31T06:26:18.833Z,993.55
2018-05-31T06:27:29.319Z,993.57
2018-05-31T06:28:39.391Z,993.58
2018-05-31T06:29:49.224Z,993.59
2018-05-31T06:30:59.266Z,993.56
2018-05-31T06:32:08.813Z,993.56
2018-05-31T06:33:19.505Z,993.56
2018-05-31T06:34:30.847Z,993.54
2018-05-31T06:35:40.863Z,993.6
2018-05-31T06:36:50.627Z,993.6
2018-05-31T06:38:00.650Z,993.6
2018-05-31T06:39:10.688Z,993.63
2018-05-31T06:40:19.996Z,993.62
2018-05-31T06:41:30.012Z,993.63
2018-05-31T06:42:40.030Z,993.65
2018-05-31T06:43:50.060Z,993.65
2018-05-31T06:45:00.073Z,993.65
2018-05-31T06:46:10.098Z,993.67
2018-05-31T06:47:20.161Z,993.66
2018-05-31T06:48:30.185Z,993.66
2018-05-31T06:49:40.210Z,993.68
2018-05-31T06:50:49.972Z,993.71
2018-05-31T06:51:59.452Z,993.71
2018-05-31T06:53:08.934Z,993.72
2018-05-31T06:54:19.008Z,993.71
2018-05-31T06:55:29.152Z,993.73
2018-05-31T06:56:39.176Z,993.73
2018-05-31T06:57:48.931Z,993.79
2018-05-31T06:58:58.425Z,993.76
2018-05-31T07:00:08.184Z,993.76
2018-05-31T07:01:17.935Z,993.75
2018-05-31T07:02:27.955Z,993.75
2018-05-31T07:03:37.970Z,993.77
2018-05-31T07:04:47.986Z,993.81
2018-05-31T07:05:57.466Z,993.79
2018-05-31T07:07:07.481Z,993.81
2018-05-31T07:08:17.549Z,993.83
2018-05-31T07:09:27.564Z,993.81
2018-05-31T07:10:37.314Z,993.83
2018-05-31T07:11:47.081Z,993.87
2018-05-31T07:12:56.310Z,993.87
2018-05-31T07:14:06.388Z,993.87
2018-05-31T07:15:16.207Z,993.88
2018-05-31T07:16:26.040Z,993.87
2018-05-31T07:17:35.793Z,993.89
2018-05-31T07:18:45.812Z,993.85
2018-05-31T07:19:55.629Z,993.83
2018-05-31T07:21:04.575Z,993.83
2018-05-31T07:22:14.596Z,993.85
2018-05-31T07:23:24.357Z,993.87
2018-05-31T07:24:34.375Z,993.88
2018-05-31T07:25:44.176Z,993.84
2018-05-31T07:26:54.201Z,993.89
2018-05-31T07:28:03.693Z,993.88
2018-05-31T07:29:13.450Z,993.9
2018-05-31T07:30:23.473Z,993.93
2018-05-31T07:31:33.283Z,993.91
2018-05-31T07:32:42.765Z,993.9
2018-05-31T07:33:52.783Z,993.93
2018-05-31T07:35:02.540Z,993.95
2018-05-31T07:36:12.312Z,993.95
2018-05-31T07:37:22.165Z,993.97
2018-05-31T07:38:31.918Z,993.93
2018-05-31T07:39:41.529Z,993.97
2018-05-31T07:40:51.283Z,993.97
2018-05-31T07:42:01.036Z,993.97
2018-05-31T07:43:11.060Z,993.96
2018-05-31T07:44:20.836Z,994.02
2018-05-31T07:45:31.049Z,993.99
2018-05-31T07:46:41.065Z,994
2018-05-31T07:47:51.086Z,994.02
2018-05-31T07:49:00.572Z,994
2018-05-31T07:50:10.344Z,993.99
2018-05-31T07:51:20.115Z,993.97
2018-05-31T07:52:30.236Z,993.99
2018-05-31T07:53:40.260Z,993.97
2018-05-31T07:54:50.289Z,993.95
2018-05-31T07:56:00.314Z,993.97
2018-05-31T07:57:09.797Z,993.93
2018-05-31T07:58:19.838Z,993.9
2018-05-31T07:59:29.457Z,993.88
2018-05-31T08:00:39.207Z,993.83
2018-05-31T08:01:49.226Z,993.8
2018-05-31T08:02:58.978Z,993.88
2018-05-31T08:04:08.728Z,993.88
2018-05-31T08:05:18.748Z,993.88
2018-05-31T08:06:28.508Z,993.85
2018-05-31T08:07:38.261Z,993.86
2018-05-31T08:08:48.015Z,993.86
2018-05-31T08:09:57.773Z,993.87
2018-05-31T08:11:07.257Z,993.84
2018-05-31T08:12:16.872Z,993.83
2018-05-31T08:13:26.895Z,993.84
2018-05-31T08:14:36.386Z,993.88
2018-05-31T08:15:46.166Z,993.9
2018-05-31T08:16:55.660Z,993.88
2018-05-31T08:18:05.161Z,993.9
2018-05-31T08:19:15.261Z,993.88
2018-05-31T08:20:24.747Z,993.89
2018-05-31T08:21:34.785Z,993.91
2018-05-31T08:22:44.534Z,993.88
2018-05-31T08:23:53.751Z,993.87
2018-05-31T08:25:03.783Z,993.84
2018-05-31T08:26:13.815Z,993.86
2018-05-31T08:27:23.856Z,993.84
2018-05-31T08:28:33.610Z,993.84
2018-05-31T08:29:43.636Z,993.81
2018-05-31T08:30:53.661Z,993.81
2018-05-31T08:32:02.914Z,993.83
2018-05-31T08:33:12.739Z,993.86
2018-05-31T08:34:22.755Z,993.87
2018-05-31T08:35:31.706Z,993.88
2018-05-31T08:36:41.726Z,993.88
2018-05-31T08:37:51.518Z,993.83
2018-05-31T08:39:01.554Z,993.85
2018-05-31T08:40:11.039Z,993.88
2018-05-31T08:41:21.063Z,993.85
2018-05-31T08:42:31.082Z,993.85
2018-05-31T08:43:40.833Z,993.86
2018-05-31T08:44:50.847Z,993.82
2018-05-31T08:46:00.874Z,993.84
2018-05-31T08:47:10.686Z,993.83
2018-05-31T08:48:20.717Z,993.82
2018-05-31T08:49:30.469Z,993.84
2018-05-31T08:50:39.688Z,993.81
2018-05-31T08:51:49.710Z,993.83
2018-05-31T08:52:59.196Z,993.82
2018-05-31T08:54:08.949Z,993.84
2018-05-31T08:55:18.701Z,993.84
2018-05-31T08:56:28.495Z,993.85
2018-05-31T08:57:38.255Z,993.8
2018-05-31T08:58:48.009Z,993.83
2018-05-31T08:59:58.038Z,993.8
2018-05-31T09:01:07.527Z,993.77
2018-05-31T09:02:17.295Z,993.77
2018-05-31T09:03:27.355Z,993.77
2018-05-31T09:04:37.384Z,993.78
2018-05-31T09:05:47.401Z,993.79
2018-05-31T09:06:57.420Z,993.8
2018-05-31T09:08:07.177Z,993.78
2018-05-31T09:09:17.207Z,993.78
2018-05-31T09:10:26.746Z,993.77
2018-05-31T09:11:35.965Z,993.79
2018-05-31T09:12:45.714Z,993.8
2018-05-31T09:13:55.735Z,993.78
2018-05-31T09:15:04.990Z,993.78
2018-05-31T09:16:14.913Z,993.78
2018-05-31T09:17:24.938Z,993.77
2018-05-31T09:18:34.956Z,993.74
2018-05-31T09:19:44.980Z,993.69
2018-05-31T09:20:55.056Z,993.74
2018-05-31T09:22:04.854Z,993.7
2018-05-31T09:23:14.290Z,993.71
2018-05-31T09:24:24.311Z,993.72
2018-05-31T09:25:34.060Z,993.69
2018-05-31T09:26:43.812Z,993.72
2018-05-31T09:27:53.673Z,993.66
2018-05-31T09:29:03.170Z,993.69
2018-05-31T09:30:12.933Z,993.67
2018-05-31T09:31:22.688Z,993.66
2018-05-31T09:32:32.440Z,993.67
2018-05-31T09:33:42.194Z,993.64
2018-05-31T09:34:52.215Z,993.71
2018-05-31T09:36:02.023Z,993.64
2018-05-31T09:37:11.777Z,993.64
2018-05-31T09:38:21.801Z,993.67
2018-05-31T09:39:31.019Z,993.61
2018-05-31T09:40:41.043Z,993.63
2018-05-31T09:41:51.065Z,993.64
2018-05-31T09:43:01.093Z,993.63
2018-05-31T09:44:10.849Z,993.59
2018-05-31T09:45:20.335Z,993.56
2018-05-31T09:46:30.111Z,993.6
2018-05-31T09:47:40.325Z,993.6
2018-05-31T09:48:50.363Z,993.58
2018-05-31T09:50:00.394Z,993.58
2018-05-31T09:51:09.881Z,993.58
2018-05-31T09:52:19.650Z,993.59
2018-05-31T09:53:29.407Z,993.61
2018-05-31T09:54:39.169Z,993.57
2018-05-31T09:55:49.198Z,993.57
2018-05-31T09:56:59.535Z,993.58
2018-05-31T09:58:08.771Z,993.57
2018-05-31T09:59:18.476Z,993.54
2018-05-31T10:00:28.228Z,993.58
2018-05-31T10:01:37.716Z,993.55
2018-05-31T10:02:47.744Z,993.53
2018-05-31T10:03:57.499Z,993.55
2018-05-31T10:05:07.262Z,993.55
2018-05-31T10:06:17.204Z,993.59
2018-05-31T10:07:27.223Z,993.56
2018-05-31T10:08:37.281Z,993.56
2018-05-31T10:09:47.033Z,993.54
2018-05-31T10:10:56.518Z,993.5
2018-05-31T10:12:06.271Z,993.53
2018-05-31T10:13:16.288Z,993.49
2018-05-31T10:14:26.319Z,993.5
2018-05-31T10:15:36.348Z,993.5
2018-05-31T10:16:46.369Z,993.53
2018-05-31T10:17:56.424Z,993.45
2018-05-31T10:19:05.913Z,993.54
2018-05-31T10:20:15.945Z,993.46
2018-05-31T10:21:25.438Z,993.45
2018-05-31T10:22:35.189Z,993.45
2018-05-31T10:23:44.683Z,993.46
2018-05-31T10:24:54.436Z,993.47
2018-05-31T10:26:03.923Z,993.46
2018-05-31T10:27:13.416Z,993.45
2018-05-31T10:28:23.184Z,993.38
2018-05-31T10:29:32.940Z,993.39
2018-05-31T10:30:42.963Z,993.39
2018-05-31T10:31:52.979Z,993.38
2018-05-31T10:33:03.003Z,993.41
2018-05-31T10:34:12.782Z,993.37
2018-05-31T10:35:22.539Z,993.38
2018-05-31T10:36:32.026Z,993.37
2018-05-31T10:37:41.517Z,993.35
2018-05-31T10:38:51.542Z,993.3
2018-05-31T10:40:01.303Z,993.3
2018-05-31T10:41:11.364Z,993.3
2018-05-31T10:42:21.128Z,993.27
2018-05-31T10:43:30.881Z,993.29
2018-05-31T10:44:40.665Z,993.24
2018-05-31T10:45:50.154Z,993.22
2018-05-31T10:47:00.196Z,993.17
2018-05-31T10:48:10.267Z,993.23
2018-05-31T10:49:20.359Z,993.14
2018-05-31T10:50:29.845Z,993.14
2018-05-31T10:51:39.331Z,993.15
2018-05-31T10:52:49.107Z,993.11
2018-05-31T10:53:59.133Z,993.11
2018-05-31T10:55:08.362Z,993.07
2018-05-31T10:56:18.173Z,993.06
2018-05-31T10:57:28.202Z,993.07
2018-05-31T10:58:38.297Z,993
2018-05-31T10:59:47.789Z,993.02
2018-05-31T11:00:57.544Z,993.02
2018-05-31T11:02:07.307Z,993
2018-05-31T11:03:17.110Z,993
2018-05-31T11:04:27.139Z,992.96
2018-05-31T11:05:36.892Z,992.91
2018-05-31T11:06:46.911Z,992.9
2018-05-31T11:07:56.932Z,992.92
2018-05-31T11:09:06.701Z,992.87
2018-05-31T11:10:16.734Z,992.85
2018-05-31T11:11:26.484Z,992.88
2018-05-31T11:12:36.239Z,992.88
2018-05-31T11:13:45.994Z,992.84
2018-05-31T11:14:55.261Z,992.85
2018-05-31T11:16:05.229Z,992.85
2018-05-31T11:17:14.451Z,992.77
2018-05-31T11:18:24.492Z,992.82
2018-05-31T11:19:34.248Z,992.82
2018-05-31T11:20:44.001Z,992.77
2018-05-31T11:21:53.753Z,992.76
2018-05-31T11:23:03.779Z,992.76
2018-05-31T11:24:13.535Z,992.75
2018-05-31T11:25:23.025Z,992.81
2018-05-31T11:26:32.512Z,992.78
2018-05-31T11:27:42.528Z,992.76
2018-05-31T11:28:52.288Z,992.72
2018-05-31T11:30:02.054Z,992.74
2018-05-31T11:31:11.808Z,992.76
2018-05-31T11:32:21.563Z,992.76
2018-05-31T11:33:31.318Z,992.76
2018-05-31T11:34:40.573Z,992.8
2018-05-31T11:35:50.289Z,992.88
2018-05-31T11:37:00.326Z,992.88
2018-05-31T11:38:09.812Z,992.9
2018-05-31T11:39:19.847Z,992.84
2018-05-31T11:40:29.611Z,992.85
2018-05-31T11:41:38.901Z,992.79
2018-05-31T11:42:48.448Z,992.79
2018-05-31T11:43:57.938Z,992.76
2018-05-31T11:45:07.702Z,992.76
2018-05-31T11:46:17.729Z,992.64
2018-05-31T11:47:26.952Z,992.43
2018-05-31T11:48:36.997Z,992.77
2018-05-31T11:49:46.491Z,992.68
2018-05-31T11:50:56.259Z,992.67
2018-05-31T11:52:05.753Z,992.7
2018-05-31T11:53:15.677Z,992.71
2018-05-31T11:54:25.440Z,992.72
2018-05-31T11:55:35.469Z,992.67
2018-05-31T11:56:45.507Z,992.55
2018-05-31T11:57:55.546Z,992.58
2018-05-31T11:59:05.047Z,992.56
2018-05-31T12:00:14.554Z,992.61
2018-05-31T12:01:24.051Z,992.64
2018-05-31T12:02:33.817Z,992.62
2018-05-31T12:03:43.393Z,992.64
2018-05-31T12:04:53.645Z,992.67
2018-05-31T12:06:03.675Z,992.64
2018-05-31T12:07:12.912Z,992.62
2018-05-31T12:08:22.727Z,992.53
2018-05-31T12:09:32.597Z,992.53
2018-05-31T12:10:42.679Z,992.55
2018-05-31T12:11:53.015Z,992.54
2018-05-31T12:13:02.519Z,992.53
2018-05-31T12:14:12.290Z,992.49
2018-05-31T12:15:22.065Z,992.51
2018-05-31T12:16:31.882Z,992.47
2018-05-31T12:17:41.922Z,992.48
2018-05-31T12:18:51.417Z,992.49
2018-05-31T12:20:01.455Z,992.31
2018-05-31T12:21:11.223Z,992.46
2018-05-31T12:22:20.724Z,992.47
2018-05-31T12:23:30.493Z,992.43
2018-05-31T12:24:40.525Z,992.43
2018-05-31T12:25:50.566Z,992.48
2018-05-31T12:27:00.329Z,992.51
2018-05-31T12:28:10.101Z,992.45
2018-05-31T12:29:19.877Z,992.43
2018-05-31T12:30:29.640Z,992.42
2018-05-31T12:31:38.871Z,992.4
2018-05-31T12:32:48.659Z,992.43
2018-05-31T12:33:58.420Z,992.39
2018-05-31T12:35:07.920Z,992.36
2018-05-31T12:36:17.977Z,992.41
2018-05-31T12:37:27.751Z,992.45
2018-05-31T12:38:37.801Z,992.44
2018-05-31T12:39:47.571Z,992.35
2018-05-31T12:40:57.345Z,992.37
2018-05-31T12:42:06.844Z,992.04
2018-05-31T12:43:16.887Z,992.06
2018-05-31T12:44:26.926Z,992.35
2018-05-31T12:45:36.970Z,991.98
2018-05-31T12:46:47.009Z,992.24
2018-05-31T12:47:56.237Z,992.18
2018-05-31T12:49:06.005Z,992.21
2018-05-31T12:50:15.777Z,991.97
2018-05-31T12:51:25.814Z,992.29
2018-05-31T12:52:35.579Z,992.18
2018-05-31T12:53:45.633Z,991.85
2018-05-31T12:54:55.864Z,991.83
2018-05-31T12:56:05.634Z,991.96
2018-05-31T12:57:15.508Z,991.95
2018-05-31T12:58:25.008Z,992.02
2018-05-31T12:59:34.504Z,991.99
2018-05-31T13:00:44.548Z,992.25
2018-05-31T13:01:54.587Z,992.22
2018-05-31T13:03:04.625Z,992.28
2018-05-31T13:04:14.663Z,992.17
2018-05-31T13:05:24.166Z,992.15
2018-05-31T13:06:34.003Z,992.16
2018-05-31T13:07:43.766Z,992.11
2018-05-31T13:08:52.993Z,992.08
2018-05-31T13:10:02.766Z,992.13
2018-05-31T13:11:12.269Z,992.11
2018-05-31T13:12:22.039Z,992.04
2018-05-31T13:13:32.086Z,992.13
2018-05-31T13:14:41.705Z,991.65
2018-05-31T13:15:51.480Z,991.7
2018-05-31T13:17:01.516Z,992.11
2018-05-31T13:18:11.552Z,991.63
2018-05-31T13:19:21.591Z,991.71
2018-05-31T13:20:31.786Z,991.72
2018-05-31T13:21:41.283Z,991.78
2018-05-31T13:22:51.316Z,991.74
2018-05-31T13:24:01.090Z,991.77
2018-05-31T13:25:10.948Z,991.83
2018-05-31T13:26:21.007Z,992.45
2018-05-31T13:27:31.042Z,992.4
2018-05-31T13:28:40.537Z,992.4
2018-05-31T13:29:50.298Z,992.31
2018-05-31T13:31:00.329Z,992.29
2018-05-31T13:32:09.829Z,992.33
2018-05-31T13:33:19.874Z,992.16
2018-05-31T13:34:29.462Z,991.58
2018-05-31T13:35:38.690Z,991.66
2018-05-31T13:36:48.729Z,991.68
2018-05-31T13:37:58.515Z,992.41
2018-05-31T13:39:08.283Z,992.35
2018-05-31T13:40:18.051Z,992.18
2018-05-31T13:41:28.099Z,992.36
2018-05-31T13:42:37.868Z,991.65
2018-05-31T13:43:47.898Z,992.41
2018-05-31T13:44:57.664Z,991.65
2018-05-31T13:46:07.431Z,991.63
2018-05-31T13:47:17.472Z,991.7
2018-05-31T13:48:27.234Z,991.72
2018-05-31T13:49:36.948Z,991.84
2018-05-31T13:50:46.445Z,991.81
2018-05-31T13:51:56.206Z,992.36
2018-05-31T13:53:06.007Z,992.33
2018-05-31T13:54:15.765Z,992.24
2018-05-31T13:55:25.798Z,991.64
2018-05-31T13:56:35.833Z,991.47
2018-05-31T13:57:45.607Z,991.48
2018-05-31T13:58:55.118Z,991.5
2018-05-31T14:00:04.350Z,992.27
2018-05-31T14:01:14.381Z,992.23
2018-05-31T14:02:24.144Z,992.16
2018-05-31T14:03:33.904Z,992.19
2018-05-31T14:04:43.936Z,992.21
2018-05-31T14:05:53.967Z,992.16
2018-05-31T14:07:04.012Z,992.18
2018-05-31T14:08:13.241Z,992.14
2018-05-31T14:09:22.750Z,992.14
2018-05-31T14:10:33.155Z,992.13
2018-05-31T14:11:43.188Z,992.03
2018-05-31T14:12:53.231Z,992.09
2018-05-31T14:14:03.262Z,991.97
2018-05-31T14:15:13.302Z,991.95
2018-05-31T14:16:23.074Z,991.89
2018-05-31T14:17:32.842Z,991.92
2018-05-31T14:18:42.613Z,992.07
2018-05-31T14:19:52.653Z,992.15
2018-05-31T14:21:02.424Z,992.1
2018-05-31T14:22:11.661Z,992.1
2018-05-31T14:23:21.697Z,992.05
2018-05-31T14:24:31.458Z,991.95
2018-05-31T14:25:41.231Z,992.06
2018-05-31T14:26:51.257Z,992.4
2018-05-31T14:28:00.498Z,992.51
2018-05-31T14:29:10.624Z,992.63
2018-05-31T14:30:20.667Z,992.71
2018-05-31T14:31:30.428Z,992.79
2018-05-31T14:32:39.938Z,992.78
2018-05-31T14:33:49.703Z,992.71
2018-05-31T14:34:59.736Z,992.77
2018-05-31T14:36:09.517Z,992.51
2018-05-31T14:37:19.287Z,992.58
2018-05-31T14:38:28.524Z,991.11
2018-05-31T14:39:38.288Z,991.15